createdAt,value
2018-07-02T00:00:43.760Z,1.70
2018-07-02T00:03:13.247Z,1.80
2018-07-02T00:05:47.135Z,1.80
2018-07-02T00:08:17.160Z,1.50
2018-07-02T00:10:46.784Z,1.40
2018-07-02T00:13:16.288Z,1.43
2018-07-02T00:15:46.391Z,1.80
2018-07-02T00:18:16.099Z,1.70
2018-07-02T00:20:45.918Z,1.63
2018-07-02T00:23:15.736Z,1.40
2018-07-02T00:25:45.396Z,1.63
2018-07-02T00:28:15.145Z,1.27
2018-07-02T00:30:44.551Z,1.43
2018-07-02T00:33:14.140Z,1.63
2018-07-02T00:35:43.755Z,1.40
2018-07-02T00:38:13.258Z,1.60
2018-07-02T00:40:42.784Z,1.60
2018-07-02T00:43:12.376Z,1.60
2018-07-02T00:45:41.976Z,1.60
2018-07-02T00:48:11.679Z,1.40
2018-07-02T00:50:41.306Z,1.57
2018-07-02T00:53:10.889Z,1.60
2018-07-02T00:55:40.609Z,1.20
2018-07-02T00:58:10.627Z,1.43
2018-07-02T01:00:40.549Z,1.50
2018-07-02T01:03:10.148Z,1.43
2018-07-02T01:05:40.360Z,1.30
2018-07-02T01:08:09.785Z,1.13
2018-07-02T01:10:39.699Z,1.20
2018-07-02T01:13:10.120Z,1.30
2018-07-02T01:15:39.637Z,1.40
2018-07-02T01:18:09.725Z,1.37
2018-07-02T01:20:39.353Z,1.30
2018-07-02T01:23:09.152Z,1.23
2018-07-02T01:25:38.672Z,1.50
2018-07-02T01:28:08.368Z,1.10
2018-07-02T01:30:38.068Z,1.20
2018-07-02T01:33:07.371Z,0.90
2018-07-02T01:35:37.198Z,1.20
2018-07-02T01:38:06.789Z,1.10
2018-07-02T01:40:36.301Z,1.00
2018-07-02T01:43:05.918Z,1.10
2018-07-02T01:45:35.705Z,1.20
2018-07-02T01:48:05.317Z,1.10
2018-07-02T01:50:35.247Z,1.37
2018-07-02T01:53:05.149Z,0.90
2018-07-02T01:55:35.168Z,1.20
2018-07-02T01:58:04.779Z,1.10
2018-07-02T02:00:34.699Z,1.20
2018-07-02T02:03:04.592Z,1.07
2018-07-02T02:05:34.519Z,1.23
2018-07-02T02:08:04.116Z,1.50
2018-07-02T02:10:33.637Z,1.20
2018-07-02T02:13:03.130Z,1.10
2018-07-02T02:15:32.758Z,1.07
2018-07-02T02:18:02.761Z,1.10
2018-07-02T02:20:32.380Z,1.20
2018-07-02T02:23:02.083Z,1.30
2018-07-02T02:25:31.868Z,1.37
2018-07-02T02:28:01.597Z,1.10
2018-07-02T02:30:31.317Z,1.10
2018-07-02T02:33:00.909Z,1.20
2018-07-02T02:35:31.237Z,1.20
2018-07-02T02:38:00.631Z,1.17
2018-07-02T02:40:30.139Z,1.10
2018-07-02T02:42:59.782Z,1.07
2018-07-02T02:45:29.251Z,1.23
2018-07-02T02:47:58.760Z,1.17
2018-07-02T02:50:28.354Z,1.23
2018-07-02T02:52:57.783Z,1.30
2018-07-02T02:55:27.376Z,1.13
2018-07-02T02:57:57.183Z,1.00
2018-07-02T03:00:26.576Z,1.00
2018-07-02T03:02:56.191Z,1.37
2018-07-02T03:05:26.000Z,1.20
2018-07-02T03:07:56.031Z,1.20
2018-07-02T03:10:25.529Z,1.20
2018-07-02T03:12:55.039Z,1.10
2018-07-02T03:15:24.541Z,1.10
2018-07-02T03:17:54.346Z,1.03
2018-07-02T03:20:24.097Z,1.10
2018-07-02T03:22:53.659Z,1.10
2018-07-02T03:25:23.288Z,1.30
2018-07-02T03:27:52.988Z,1.33
2018-07-02T03:30:22.597Z,1.00
2018-07-02T03:32:52.308Z,1.13
2018-07-02T03:35:22.100Z,1.47
2018-07-02T03:37:51.707Z,1.30
2018-07-02T03:40:21.529Z,1.37
2018-07-02T03:42:51.122Z,1.47
2018-07-02T03:45:20.747Z,1.20
2018-07-02T03:47:50.650Z,1.20
2018-07-02T03:50:20.368Z,1.60
2018-07-02T03:52:49.790Z,1.57
2018-07-02T03:55:19.259Z,1.83
2018-07-02T03:57:48.784Z,1.93
2018-07-02T04:00:18.699Z,2.17
2018-07-02T04:02:48.306Z,1.97
2018-07-02T04:05:18.320Z,1.70
2018-07-02T04:07:47.719Z,1.97
2018-07-02T04:10:17.219Z,1.50
2018-07-02T04:12:47.030Z,1.70
2018-07-02T04:15:16.638Z,1.27
2018-07-02T04:17:46.346Z,1.40
2018-07-02T04:20:17.170Z,1.50
2018-07-02T04:22:46.700Z,1.13
2018-07-02T04:25:16.176Z,1.03
2018-07-02T04:27:46.407Z,1.30
2018-07-02T04:30:15.919Z,1.27
2018-07-02T04:32:45.641Z,1.27
2018-07-02T04:35:15.141Z,1.30
2018-07-02T04:37:44.808Z,1.30
2018-07-02T04:40:14.659Z,1.50
2018-07-02T04:42:44.765Z,1.70
2018-07-02T04:45:14.617Z,1.37
2018-07-02T04:47:44.409Z,1.70
2018-07-02T04:50:14.100Z,1.93
2018-07-02T04:52:43.710Z,1.60
2018-07-02T04:55:13.355Z,1.60
2018-07-02T04:57:43.542Z,2.27
2018-07-02T05:00:13.543Z,1.90
2018-07-02T05:02:43.369Z,1.60
2018-07-02T05:05:13.911Z,1.73
2018-07-02T05:07:43.345Z,1.40
2018-07-02T05:10:13.107Z,1.40
2018-07-02T05:12:43.423Z,1.73
2018-07-02T05:15:12.949Z,1.53
2018-07-02T05:17:42.342Z,1.53
2018-07-02T05:20:12.245Z,1.40
2018-07-02T05:22:42.153Z,1.50
2018-07-02T05:25:12.189Z,1.33
2018-07-02T05:27:42.101Z,2.23
2018-07-02T05:30:11.401Z,1.53
2018-07-02T05:32:41.012Z,1.57
2018-07-02T05:35:10.801Z,1.20
2018-07-02T05:37:40.739Z,1.60
2018-07-02T05:40:12.927Z,1.20
2018-07-02T05:42:42.719Z,1.30
2018-07-02T05:45:11.996Z,1.70
2018-07-02T05:47:41.620Z,1.30
2018-07-02T05:50:11.110Z,1.57
2018-07-02T05:52:41.157Z,1.20
2018-07-02T05:55:11.041Z,1.40
2018-07-02T05:57:40.659Z,1.47
2018-07-02T06:00:11.316Z,1.40
2018-07-02T06:02:41.921Z,1.40
2018-07-02T06:05:11.922Z,1.70
2018-07-02T06:07:41.427Z,1.03
2018-07-02T06:10:11.237Z,1.40
2018-07-02T06:12:40.760Z,1.37
2018-07-02T06:15:10.256Z,1.30
2018-07-02T06:17:41.199Z,1.57
2018-07-02T06:20:11.319Z,1.50
2018-07-02T06:22:41.439Z,1.40
2018-07-02T06:25:11.030Z,1.23
2018-07-02T06:27:40.659Z,1.23
2018-07-02T06:30:10.761Z,1.23
2018-07-02T06:32:40.568Z,1.07
2018-07-02T06:35:10.200Z,1.27
2018-07-02T06:37:39.698Z,1.13
2018-07-02T06:40:09.799Z,1.47
2018-07-02T06:42:39.813Z,1.27
2018-07-02T06:45:09.731Z,1.07
2018-07-02T06:47:39.539Z,1.53
2018-07-02T06:50:09.587Z,1.07
2018-07-02T06:52:39.899Z,1.20
2018-07-02T06:55:09.188Z,1.43
2018-07-02T06:57:38.996Z,1.50
2018-07-02T07:00:08.610Z,1.30
2018-07-02T07:02:38.004Z,1.20
2018-07-02T07:05:07.807Z,1.20
2018-07-02T07:07:37.630Z,1.60
2018-07-02T07:10:07.232Z,1.30
2018-07-02T07:12:37.250Z,1.20
2018-07-02T07:15:07.576Z,1.10
2018-07-02T07:17:37.997Z,1.20
2018-07-02T07:20:08.322Z,1.40
2018-07-02T07:22:37.930Z,1.00
2018-07-02T07:25:08.160Z,1.20
2018-07-02T07:27:38.179Z,1.27
2018-07-02T07:30:08.181Z,0.90
2018-07-02T07:32:37.687Z,1.43
2018-07-02T07:35:07.601Z,1.00
2018-07-02T07:37:37.928Z,1.27
2018-07-02T07:40:07.948Z,1.33
2018-07-02T07:42:37.976Z,1.53
2018-07-02T07:45:08.389Z,1.17
2018-07-02T07:47:42.088Z,1.20
2018-07-02T07:50:13.792Z,1.30
2018-07-02T07:52:46.524Z,1.30
2018-07-02T07:55:17.568Z,1.27
2018-07-02T07:57:48.392Z,1.60
2018-07-02T08:00:18.733Z,0.97
2018-07-02T08:02:48.645Z,1.50
2018-07-02T08:05:18.822Z,1.50
2018-07-02T08:07:48.565Z,1.40
2018-07-02T08:10:19.418Z,1.40
2018-07-02T08:12:50.062Z,1.10
2018-07-02T08:15:20.564Z,1.10
2018-07-02T08:17:50.685Z,1.23
2018-07-02T08:20:21.008Z,1.30
2018-07-02T08:22:51.129Z,0.97
2018-07-02T08:25:22.582Z,1.20
2018-07-02T08:27:53.222Z,1.23
2018-07-02T08:30:23.126Z,1.30
2018-07-02T08:32:53.793Z,1.10
2018-07-02T08:35:23.566Z,1.20
2018-07-02T08:37:54.101Z,0.90
2018-07-02T08:40:25.035Z,1.00
2018-07-02T08:42:55.571Z,1.10
2018-07-02T08:45:32.562Z,1.20
2018-07-02T08:48:03.583Z,1.40
2018-07-02T08:50:33.421Z,1.13
2018-07-02T08:53:03.110Z,0.90
2018-07-02T08:55:33.024Z,1.50
2018-07-02T08:58:02.519Z,1.27
2018-07-02T09:00:33.162Z,1.10
2018-07-02T09:03:03.682Z,1.30
2018-07-02T09:05:33.589Z,1.47
2018-07-02T09:08:03.616Z,1.20
2018-07-02T09:10:33.118Z,1.30
2018-07-02T09:13:02.721Z,1.10
2018-07-02T09:15:32.431Z,0.90
2018-07-02T09:18:01.933Z,1.30
2018-07-02T09:20:31.742Z,1.10
2018-07-02T09:23:02.082Z,1.33
2018-07-02T09:25:31.886Z,1.00
2018-07-02T09:28:01.923Z,1.00
2018-07-02T09:30:31.622Z,1.33
2018-07-02T09:33:01.222Z,1.13
2018-07-02T09:35:31.042Z,0.90
2018-07-02T09:38:00.939Z,1.00
2018-07-02T09:40:31.701Z,0.90
2018-07-02T09:43:02.121Z,1.07
2018-07-02T09:45:33.446Z,1.23
2018-07-02T09:48:03.564Z,0.90
2018-07-02T09:50:33.170Z,1.40
2018-07-02T09:53:03.102Z,1.10
2018-07-02T09:55:33.017Z,1.20
2018-07-02T09:58:03.120Z,1.30
2018-07-02T10:00:34.038Z,0.97
2018-07-02T10:03:04.174Z,1.00
2018-07-02T10:05:33.902Z,1.00
2018-07-02T10:08:03.819Z,1.30
2018-07-02T10:10:34.120Z,0.90
2018-07-02T10:13:03.739Z,1.20
2018-07-02T10:15:33.661Z,1.10
2018-07-02T10:18:04.588Z,1.10
2018-07-02T10:20:34.200Z,1.30
2018-07-02T10:23:03.790Z,0.97
2018-07-02T10:25:33.199Z,1.20
2018-07-02T10:28:03.319Z,1.33
2018-07-02T10:30:33.230Z,0.90
2018-07-02T10:33:03.043Z,1.20
2018-07-02T10:35:33.265Z,1.13
2018-07-02T10:38:03.277Z,1.27
2018-07-02T10:40:34.641Z,1.20
2018-07-02T10:43:04.644Z,1.20
2018-07-02T12:02:21.982Z,1.30
2018-07-02T12:04:52.284Z,1.23
2018-07-02T12:07:21.891Z,1.20
2018-07-02T12:09:51.506Z,1.37
2018-07-02T12:12:21.022Z,1.20
2018-07-02T12:14:51.143Z,1.20
2018-07-02T12:17:24.215Z,1.57
2018-07-02T12:19:53.925Z,1.17
2018-07-02T12:22:23.939Z,1.10
2018-07-02T12:24:54.149Z,1.17
2018-07-02T12:27:25.506Z,1.20
2018-07-02T12:29:55.525Z,1.10
2018-07-02T12:51:10.802Z,1.10
2018-07-02T12:53:41.342Z,1.20
2018-07-02T12:56:11.668Z,1.10
2018-07-02T12:58:41.802Z,1.07
2018-07-02T13:01:11.628Z,1.60
2018-07-02T13:03:41.943Z,1.40
2018-07-02T13:06:12.048Z,1.13
2018-07-02T13:08:42.174Z,1.20
2018-07-02T13:11:12.687Z,0.90
2018-07-02T13:13:42.602Z,1.30
2018-07-02T13:16:12.926Z,1.27
2018-07-02T13:18:43.149Z,1.20
2018-07-02T13:21:12.964Z,1.40
2018-07-02T13:23:43.082Z,1.40
2018-07-02T13:26:12.786Z,1.37
2018-07-02T13:28:43.124Z,1.10
2018-07-02T13:31:13.128Z,1.40
2018-07-02T13:33:43.765Z,1.10
2018-07-02T13:36:13.577Z,1.27
2018-07-02T13:38:43.588Z,1.13
2018-07-02T13:41:14.113Z,1.10
2018-07-02T13:43:44.746Z,1.10
2018-07-02T13:46:14.782Z,1.00
2018-07-02T13:48:45.101Z,1.07
2018-07-02T13:51:14.748Z,1.20
2018-07-02T13:53:44.321Z,1.20
2018-07-02T13:56:14.626Z,1.20
2018-07-02T13:58:44.230Z,1.40
2018-07-02T14:01:14.657Z,1.50
2018-07-02T14:03:44.812Z,1.30
2018-07-02T14:06:14.802Z,1.10
2018-07-02T14:08:45.050Z,1.40
2018-07-02T14:11:14.778Z,1.30
2018-07-02T14:13:47.301Z,1.30
2018-07-02T14:16:16.803Z,1.17
2018-07-02T14:18:47.763Z,1.20
2018-07-02T14:21:17.458Z,1.20
2018-07-02T14:23:47.091Z,1.57
2018-07-02T14:26:18.306Z,1.43
2018-07-02T14:28:48.422Z,1.30
2018-07-02T14:31:18.781Z,1.20
2018-07-02T14:33:48.356Z,1.33
2018-07-02T14:36:18.248Z,1.63
2018-07-02T14:38:48.181Z,1.33
2018-07-02T14:41:18.121Z,1.20
2018-07-02T14:43:48.218Z,1.40
2018-07-02T14:46:18.126Z,1.20
2018-07-02T14:48:47.734Z,1.20
2018-07-02T14:51:17.237Z,1.50
2018-07-02T14:53:46.643Z,1.13
2018-07-02T14:56:16.143Z,1.30
2018-07-02T14:58:45.847Z,1.30
2018-07-02T15:01:15.052Z,1.30
2018-07-02T15:03:45.168Z,1.50
2018-07-02T15:06:14.881Z,1.00
2018-07-02T15:08:44.896Z,1.23
2018-07-02T15:11:14.604Z,1.30
2018-07-02T17:16:18.124Z,1.03
2018-07-02T17:18:48.328Z,1.10
2018-07-02T17:21:18.780Z,1.10
2018-07-02T17:23:48.361Z,1.10
2018-07-02T17:26:18.580Z,1.20
2018-07-02T17:28:48.713Z,0.90
2018-07-02T17:31:19.233Z,1.10
2018-07-02T17:33:48.720Z,1.10
2018-07-02T17:36:18.644Z,1.03
2018-07-02T17:38:48.142Z,0.90
2018-07-02T17:41:18.061Z,0.90
2018-07-02T17:43:48.585Z,0.90
2018-07-02T17:46:18.613Z,1.20
2018-07-02T17:48:49.122Z,1.27
2018-07-02T17:51:19.564Z,1.20
2018-07-02T17:53:49.673Z,1.00
2018-07-02T17:56:19.689Z,1.53
2018-07-02T17:58:50.132Z,1.30
2018-07-02T18:01:20.567Z,1.17
2018-07-02T18:03:51.000Z,1.40
2018-07-02T18:06:21.193Z,1.60
2018-07-02T18:08:51.524Z,1.67
2018-07-02T18:11:22.149Z,1.70
2018-07-02T18:13:52.693Z,1.50
2018-07-02T18:16:24.533Z,1.10
2018-07-02T18:18:56.092Z,1.50
2018-07-02T18:21:26.757Z,1.77
2018-07-02T18:23:59.089Z,1.10
2018-07-02T18:26:34.541Z,1.07
2018-07-02T18:29:09.162Z,1.63
2018-07-02T18:31:43.387Z,2.23
2018-07-02T18:34:18.209Z,2.00
2018-07-02T18:36:56.308Z,1.43
2018-07-02T18:39:27.550Z,1.77
2018-07-02T18:41:58.183Z,1.17
2018-07-02T18:44:29.129Z,1.20
2018-07-02T18:47:03.341Z,1.00
2018-07-02T18:49:38.809Z,1.50
2018-07-02T18:52:12.101Z,1.27
2018-07-02T18:54:45.685Z,1.10
2018-07-02T18:57:16.532Z,1.33
2018-07-02T18:59:50.004Z,1.10
2018-07-02T19:02:20.788Z,1.40
2018-07-02T19:04:53.429Z,1.10
2018-07-02T19:07:26.401Z,1.40
2018-07-02T19:09:57.041Z,1.80
2018-07-02T19:12:28.386Z,1.60
2018-07-02T19:15:00.821Z,1.80
2018-07-02T19:17:31.382Z,1.90
2018-07-02T19:20:01.619Z,1.97
2018-07-02T19:22:34.808Z,1.80
2018-07-02T19:25:06.248Z,2.40
2018-07-02T19:27:37.600Z,1.93
2018-07-02T19:30:08.240Z,1.90
2018-07-02T19:32:43.993Z,2.30
2018-07-02T19:35:14.416Z,2.13
2018-07-02T19:37:48.790Z,2.37
2018-07-02T19:40:19.545Z,2.53
2018-07-02T19:42:49.800Z,2.43
2018-07-02T19:45:25.335Z,2.73
2018-07-02T19:47:59.961Z,2.73
2018-07-02T19:50:33.562Z,2.77
2018-07-02T19:53:05.100Z,3.07
2018-07-02T19:55:40.864Z,2.63
2018-07-02T19:58:11.181Z,3.23
2018-07-02T20:00:46.319Z,3.27
2018-07-02T20:03:22.393Z,3.40
2018-07-02T20:06:02.848Z,3.20
2018-07-02T20:08:33.040Z,3.30
2018-07-02T20:11:03.576Z,3.67
2018-07-02T20:13:35.350Z,3.20
2018-07-02T20:16:05.661Z,3.40
2018-07-02T20:18:36.409Z,2.90
2018-07-02T20:21:07.321Z,2.77
2018-07-02T20:23:37.760Z,2.87
2018-07-02T20:26:08.082Z,3.30
2018-07-02T20:28:39.853Z,2.63
2018-07-02T20:31:12.333Z,2.70
2018-07-02T20:33:43.054Z,2.87
2018-07-02T20:36:14.015Z,3.27
2018-07-02T20:38:48.821Z,3.33
2018-07-02T20:41:22.728Z,3.50
2018-07-02T20:43:53.352Z,3.10
2018-07-02T20:46:23.801Z,3.23
2018-07-02T20:48:54.321Z,2.80
2018-07-02T20:51:24.441Z,3.10
2018-07-02T20:53:54.561Z,3.07
2018-07-02T20:56:24.773Z,3.50
2018-07-02T20:58:57.141Z,3.87
2018-07-02T21:01:27.367Z,4.13
2018-07-02T21:03:57.182Z,3.77
2018-07-02T21:06:27.693Z,3.80
2018-07-02T21:08:57.720Z,4.43
2018-07-02T21:11:27.639Z,4.10
2018-07-02T21:13:57.672Z,4.33
2018-07-02T21:16:27.664Z,4.60
2018-07-02T21:18:57.890Z,3.83
2018-07-02T21:21:28.423Z,4.53
2018-07-02T21:23:58.743Z,4.30
2018-07-02T21:26:28.859Z,4.60
2018-07-02T21:28:58.783Z,3.90
2018-07-02T21:31:29.523Z,3.67
2018-07-02T21:33:59.795Z,3.53
2018-07-02T21:36:29.670Z,3.40
2018-07-02T21:38:59.657Z,3.30
2018-07-02T21:41:29.680Z,3.43
2018-07-02T21:43:59.700Z,2.97
2018-07-02T21:46:29.909Z,3.13
2018-07-02T21:48:59.942Z,2.77
2018-07-02T21:51:30.060Z,2.60
2018-07-02T21:54:00.168Z,2.60
2018-07-02T21:56:30.300Z,2.37
2018-07-02T21:59:00.619Z,1.97
2018-07-02T22:01:30.639Z,1.70
2018-07-02T22:04:00.664Z,2.17
2018-07-02T22:06:30.761Z,1.90
2018-07-02T22:09:00.571Z,2.20
2018-07-02T22:11:30.592Z,2.27
2018-07-02T22:14:00.919Z,2.40
2018-07-02T22:16:31.140Z,2.10
2018-07-02T22:19:01.172Z,1.90
2018-07-02T22:21:31.078Z,2.13
2018-07-02T22:24:01.192Z,2.20
2018-07-02T22:26:36.792Z,2.03
2018-07-02T22:29:07.169Z,2.37
2018-07-02T22:31:37.702Z,1.93
2018-07-02T22:34:07.716Z,2.63
2018-07-02T22:36:37.631Z,2.13
2018-07-02T22:39:09.161Z,2.70
2018-07-02T22:41:39.278Z,2.43
2018-07-02T22:44:10.643Z,2.67
2018-07-02T22:46:41.082Z,2.53
2018-07-02T22:49:11.493Z,2.80
2018-07-02T22:51:41.931Z,2.60
2018-07-02T22:54:12.350Z,2.80
2018-07-02T22:56:42.678Z,2.87
2018-07-02T22:59:13.095Z,2.57
2018-07-02T23:01:43.033Z,2.57
2018-07-02T23:04:13.744Z,2.50
2018-07-02T23:06:43.764Z,3.20
2018-07-02T23:09:14.183Z,3.07
2018-07-02T23:11:44.215Z,2.97
2018-07-02T23:14:15.040Z,2.77
2018-07-02T23:16:45.253Z,2.70
2018-07-02T23:19:15.390Z,2.47
2018-07-02T23:21:45.690Z,2.87
2018-07-02T23:24:16.140Z,2.80
2018-07-02T23:26:46.149Z,3.20
2018-07-02T23:29:16.770Z,3.23
2018-07-02T23:31:46.698Z,2.87
2018-07-02T23:34:16.709Z,3.03
2018-07-02T23:36:47.080Z,3.20
2018-07-02T23:39:17.361Z,3.10
2018-07-02T23:41:47.688Z,3.00
2018-07-02T23:44:17.675Z,2.93
2018-07-02T23:46:47.790Z,3.10
2018-07-02T23:49:18.240Z,2.87
2018-07-02T23:51:48.368Z,2.73
2018-07-02T23:54:18.690Z,2.93
2018-07-02T23:56:49.004Z,3.33
2018-07-02T23:59:19.128Z,3.77
